sensor_id;sensor_type;location;lat;lon;timestamp;P1;durP1;ratioP1;P2;durP2;ratioP2
3006;SDS011;1513;47.650;10.720;2024-03-06T00:10:18;2.30;;;1.70;;
3006;SDS011;1513;47.650;10.720;2024-03-06T00:14:22;3.60;;;2.50;;
3006;SDS011;1513;47.650;10.720;2024-03-06T00:17:40;3.77;;;2.50;;
3006;SDS011;1513;47.650;10.720;2024-03-06T00:20:51;2.60;;;2.00;;
3006;SDS011;1513;47.650;10.720;2024-03-06T00:28:14;1.93;;;1.70;;
3006;SDS011;1513;47.650;10.720;2024-03-06T00:31:32;2.97;;;1.90;;
3006;SDS011;1513;47.650;10.720;2024-03-06T00:34:02;2.67;;;1.80;;
3006;SDS011;1513;47.650;10.720;2024-03-06T00:36:32;3.77;;;2.13;;
3006;SDS011;1513;47.650;10.720;2024-03-06T00:39:08;2.90;;;2.20;;
3006;SDS011;1513;47.650;10.720;2024-03-06T00:41:46;3.60;;;2.40;;
3006;SDS011;1513;47.650;10.720;2024-03-06T00:45:02;4.27;;;3.20;;
3006;SDS011;1513;47.650;10.720;2024-03-06T00:47:59;4.43;;;2.70;;
3006;SDS011;1513;47.650;10.720;2024-03-06T00:50:50;4.23;;;2.50;;
3006;SDS011;1513;47.650;10.720;2024-03-06T00:54:09;5.07;;;2.40;;
3006;SDS011;1513;47.650;10.720;2024-03-06T00:57:53;4.57;;;2.50;;
3006;SDS011;1513;47.650;10.720;2024-03-06T01:01:15;3.57;;;2.10;;
3006;SDS011;1513;47.650;10.720;2024-03-06T01:08:33;2.27;;;1.90;;
3006;SDS011;1513;47.650;10.720;2024-03-06T01:11:09;2.97;;;2.33;;
3006;SDS011;1513;47.650;10.720;2024-03-06T01:14:44;2.83;;;2.07;;
3006;SDS011;1513;47.650;10.720;2024-03-06T01:17:25;2.37;;;1.97;;
3006;SDS011;1513;47.650;10.720;2024-03-06T01:20:55;2.77;;;2.20;;
3006;SDS011;1513;47.650;10.720;2024-03-06T01:23:54;2.70;;;1.80;;
3006;SDS011;1513;47.650;10.720;2024-03-06T01:27:01;2.40;;;1.93;;
3006;SDS011;1513;47.650;10.720;2024-03-06T01:30:15;2.33;;;1.97;;
3006;SDS011;1513;47.650;10.720;2024-03-06T01:32:48;2.47;;;1.97;;
3006;SDS011;1513;47.650;10.720;2024-03-06T01:35:21;3.07;;;2.00;;
3006;SDS011;1513;47.650;10.720;2024-03-06T01:37:48;2.40;;;1.90;;
3006;SDS011;1513;47.650;10.720;2024-03-06T01:40:46;2.40;;;2.00;;
3006;SDS011;1513;47.650;10.720;2024-03-06T01:44:47;1.80;;;1.50;;
3006;SDS011;1513;47.650;10.720;2024-03-06T01:51:15;1.70;;;1.60;;
3006;SDS011;1513;47.650;10.720;2024-03-06T01:54:19;2.30;;;1.83;;
3006;SDS011;1513;47.650;10.720;2024-03-06T01:57:54;4.13;;;1.77;;
3006;SDS011;1513;47.650;10.720;2024-03-06T02:01:29;2.47;;;1.60;;
3006;SDS011;1513;47.650;10.720;2024-03-06T02:04:44;2.60;;;1.70;;
3006;SDS011;1513;47.650;10.720;2024-03-06T02:11:10;3.30;;;2.03;;
3006;SDS011;1513;47.650;10.720;2024-03-06T02:14:20;1.80;;;1.70;;
3006;SDS011;1513;47.650;10.720;2024-03-06T02:18:04;2.80;;;1.90;;
3006;SDS011;1513;47.650;10.720;2024-03-06T02:22:22;2.13;;;1.53;;
3006;SDS011;1513;47.650;10.720;2024-03-06T02:25:02;1.93;;;1.73;;
3006;SDS011;1513;47.650;10.720;2024-03-06T02:28:22;2.57;;;2.20;;
3006;SDS011;1513;47.650;10.720;2024-03-06T02:30:52;2.80;;;2.20;;
3006;SDS011;1513;47.650;10.720;2024-03-06T02:33:49;3.37;;;2.30;;
3006;SDS011;1513;47.650;10.720;2024-03-06T02:36:43;5.20;;;3.10;;
3006;SDS011;1513;47.650;10.720;2024-03-06T02:40:07;4.90;;;2.90;;
3006;SDS011;1513;47.650;10.720;2024-03-06T02:43:16;3.07;;;2.20;;
3006;SDS011;1513;47.650;10.720;2024-03-06T02:45:50;3.27;;;2.37;;
3006;SDS011;1513;47.650;10.720;2024-03-06T02:52:31;3.97;;;2.47;;
3006;SDS011;1513;47.650;10.720;2024-03-06T02:56:03;3.60;;;2.17;;
3006;SDS011;1513;47.650;10.720;2024-03-06T02:59:05;2.70;;;2.40;;
3006;SDS011;1513;47.650;10.720;2024-03-06T03:01:32;3.07;;;2.43;;
3006;SDS011;1513;47.650;10.720;2024-03-06T03:03:59;2.00;;;1.80;;
3006;SDS011;1513;47.650;10.720;2024-03-06T03:07:20;3.07;;;2.00;;
3006;SDS011;1513;47.650;10.720;2024-03-06T03:10:18;1.90;;;1.50;;
3006;SDS011;1513;47.650;10.720;2024-03-06T03:13:39;2.10;;;1.80;;
3006;SDS011;1513;47.650;10.720;2024-03-06T03:16:35;1.57;;;1.37;;
3006;SDS011;1513;47.650;10.720;2024-03-06T03:19:23;1.43;;;1.27;;
3006;SDS011;1513;47.650;10.720;2024-03-06T03:22:07;1.10;;;1.10;;
3006;SDS011;1513;47.650;10.720;2024-03-06T03:24:41;2.70;;;1.87;;
3006;SDS011;1513;47.650;10.720;2024-03-06T03:27:20;1.50;;;1.40;;
3006;SDS011;1513;47.650;10.720;2024-03-06T03:30:46;0.90;;;0.90;;
3006;SDS011;1513;47.650;10.720;2024-03-06T03:33:21;3.20;;;1.30;;
3006;SDS011;1513;47.650;10.720;2024-03-06T03:35:56;1.40;;;1.30;;
3006;SDS011;1513;47.650;10.720;2024-03-06T03:38:31;1.47;;;1.37;;
3006;SDS011;1513;47.650;10.720;2024-03-06T03:41:27;1.00;;;0.80;;
3006;SDS011;1513;47.650;10.720;2024-03-06T03:44:23;1.10;;;1.10;;
3006;SDS011;1513;47.650;10.720;2024-03-06T03:47:58;1.57;;;1.47;;
3006;SDS011;1513;47.650;10.720;2024-03-06T03:50:45;7.43;;;5.30;;
3006;SDS011;1513;47.650;10.720;2024-03-06T03:53:35;6.87;;;4.17;;
3006;SDS011;1513;47.650;10.720;2024-03-06T03:57:05;5.33;;;3.00;;
3006;SDS011;1513;47.650;10.720;2024-03-06T03:59:35;4.40;;;2.87;;
3006;SDS011;1513;47.650;10.720;2024-03-06T04:06:16;3.17;;;2.30;;
3006;SDS011;1513;47.650;10.720;2024-03-06T04:08:48;7.50;;;2.20;;
3006;SDS011;1513;47.650;10.720;2024-03-06T04:11:30;3.50;;;2.47;;
3006;SDS011;1513;47.650;10.720;2024-03-06T04:14:37;1.83;;;1.73;;
3006;SDS011;1513;47.650;10.720;2024-03-06T04:18:39;1.40;;;1.30;;
3006;SDS011;1513;47.650;10.720;2024-03-06T04:22:13;2.10;;;1.40;;
3006;SDS011;1513;47.650;10.720;2024-03-06T04:25:28;2.43;;;1.80;;
3006;SDS011;1513;47.650;10.720;2024-03-06T04:27:57;1.57;;;1.37;;
3006;SDS011;1513;47.650;10.720;2024-03-06T04:30:43;1.63;;;1.53;;
3006;SDS011;1513;47.650;10.720;2024-03-06T04:36:42;1.80;;;1.70;;
3006;SDS011;1513;47.650;10.720;2024-03-06T04:48:21;1.97;;;1.80;;
3006;SDS011;1513;47.650;10.720;2024-03-06T04:51:32;2.13;;;1.93;;
3006;SDS011;1513;47.650;10.720;2024-03-06T04:55:29;2.30;;;1.60;;
3006;SDS011;1513;47.650;10.720;2024-03-06T04:58:33;1.97;;;1.87;;
3006;SDS011;1513;47.650;10.720;2024-03-06T05:01:09;2.40;;;2.20;;
3006;SDS011;1513;47.650;10.720;2024-03-06T05:04:04;4.27;;;2.97;;
3006;SDS011;1513;47.650;10.720;2024-03-06T05:10:35;2.90;;;2.30;;
3006;SDS011;1513;47.650;10.720;2024-03-06T05:13:05;4.00;;;2.60;;
3006;SDS011;1513;47.650;10.720;2024-03-06T05:15:32;28.70;;;14.00;;
3006;SDS011;1513;47.650;10.720;2024-03-06T05:17:59;13.53;;;7.37;;
3006;SDS011;1513;47.650;10.720;2024-03-06T05:20:26;9.60;;;3.47;;
3006;SDS011;1513;47.650;10.720;2024-03-06T05:22:53;2.30;;;2.03;;
3006;SDS011;1513;47.650;10.720;2024-03-06T05:25:34;3.73;;;2.57;;
3006;SDS011;1513;47.650;10.720;2024-03-06T05:28:09;4.90;;;2.43;;
3006;SDS011;1513;47.650;10.720;2024-03-06T05:31:46;3.00;;;2.23;;
3006;SDS011;1513;47.650;10.720;2024-03-06T05:35:16;2.60;;;1.97;;
3006;SDS011;1513;47.650;10.720;2024-03-06T05:38:00;4.20;;;3.00;;
3006;SDS011;1513;47.650;10.720;2024-03-06T05:41:31;3.30;;;2.30;;
3006;SDS011;1513;47.650;10.720;2024-03-06T05:44:08;4.07;;;2.93;;
3006;SDS011;1513;47.650;10.720;2024-03-06T05:46:46;3.17;;;2.53;;
3006;SDS011;1513;47.650;10.720;2024-03-06T05:49:18;2.63;;;2.43;;
3006;SDS011;1513;47.650;10.720;2024-03-06T05:51:51;2.60;;;2.23;;
3006;SDS011;1513;47.650;10.720;2024-03-06T05:55:08;1.63;;;1.50;;
3006;SDS011;1513;47.650;10.720;2024-03-06T05:58:28;5.03;;;2.20;;
3006;SDS011;1513;47.650;10.720;2024-03-06T06:01:50;5.20;;;3.67;;
3006;SDS011;1513;47.650;10.720;2024-03-06T06:05:39;25.30;;;10.00;;
3006;SDS011;1513;47.650;10.720;2024-03-06T06:09:09;24.73;;;9.20;;
3006;SDS011;1513;47.650;10.720;2024-03-06T06:12:51;13.60;;;6.80;;
3006;SDS011;1513;47.650;10.720;2024-03-06T06:15:33;12.03;;;5.67;;
3006;SDS011;1513;47.650;10.720;2024-03-06T06:18:03;6.27;;;3.93;;
3006;SDS011;1513;47.650;10.720;2024-03-06T06:20:40;8.23;;;3.80;;
3006;SDS011;1513;47.650;10.720;2024-03-06T06:23:29;4.50;;;3.27;;
3006;SDS011;1513;47.650;10.720;2024-03-06T06:26:44;4.20;;;3.00;;
3006;SDS011;1513;47.650;10.720;2024-03-06T06:29:35;5.23;;;3.70;;
3006;SDS011;1513;47.650;10.720;2024-03-06T06:32:53;5.00;;;3.70;;
3006;SDS011;1513;47.650;10.720;2024-03-06T06:36:16;4.70;;;3.00;;
3006;SDS011;1513;47.650;10.720;2024-03-06T06:39:40;7.00;;;4.20;;
3006;SDS011;1513;47.650;10.720;2024-03-06T06:42:37;5.20;;;3.20;;
3006;SDS011;1513;47.650;10.720;2024-03-06T06:45:12;5.00;;;3.43;;
3006;SDS011;1513;47.650;10.720;2024-03-06T06:48:37;2.80;;;2.50;;
3006;SDS011;1513;47.650;10.720;2024-03-06T06:51:20;2.30;;;2.10;;
3006;SDS011;1513;47.650;10.720;2024-03-06T06:54:02;3.33;;;2.10;;
3006;SDS011;1513;47.650;10.720;2024-03-06T06:57:09;2.20;;;1.90;;
3006;SDS011;1513;47.650;10.720;2024-03-06T07:00:17;3.50;;;2.20;;
3006;SDS011;1513;47.650;10.720;2024-03-06T07:03:16;4.50;;;2.70;;
3006;SDS011;1513;47.650;10.720;2024-03-06T07:06:57;3.27;;;2.20;;
3006;SDS011;1513;47.650;10.720;2024-03-06T07:10:12;3.43;;;1.80;;
3006;SDS011;1513;47.650;10.720;2024-03-06T07:13:20;2.63;;;2.07;;
3006;SDS011;1513;47.650;10.720;2024-03-06T07:16:10;2.47;;;2.03;;
3006;SDS011;1513;47.650;10.720;2024-03-06T07:19:23;2.93;;;2.60;;
3006;SDS011;1513;47.650;10.720;2024-03-06T07:22:30;3.00;;;2.80;;
3006;SDS011;1513;47.650;10.720;2024-03-06T07:25:03;3.80;;;3.10;;
3006;SDS011;1513;47.650;10.720;2024-03-06T07:28:28;3.60;;;3.07;;
3006;SDS011;1513;47.650;10.720;2024-03-06T07:31:18;3.10;;;2.90;;
3006;SDS011;1513;47.650;10.720;2024-03-06T07:33:51;2.00;;;1.83;;
3006;SDS011;1513;47.650;10.720;2024-03-06T07:36:24;1.83;;;1.67;;
3006;SDS011;1513;47.650;10.720;2024-03-06T07:38:53;1.47;;;1.37;;
3006;SDS011;1513;47.650;10.720;2024-03-06T07:41:26;1.70;;;1.60;;
3006;SDS011;1513;47.650;10.720;2024-03-06T07:44:08;2.27;;;1.97;;
3006;SDS011;1513;47.650;10.720;2024-03-06T07:47:26;1.47;;;1.37;;
3006;SDS011;1513;47.650;10.720;2024-03-06T07:49:55;2.10;;;1.43;;
3006;SDS011;1513;47.650;10.720;2024-03-06T07:52:32;1.40;;;1.30;;
3006;SDS011;1513;47.650;10.720;2024-03-06T07:55:01;1.80;;;1.70;;
3006;SDS011;1513;47.650;10.720;2024-03-06T07:57:31;2.53;;;2.00;;
3006;SDS011;1513;47.650;10.720;2024-03-06T08:00:00;1.50;;;1.40;;
3006;SDS011;1513;47.650;10.720;2024-03-06T08:02:27;1.37;;;1.20;;
3006;SDS011;1513;47.650;10.720;2024-03-06T08:05:11;2.13;;;1.97;;
3006;SDS011;1513;47.650;10.720;2024-03-06T08:07:41;1.90;;;1.70;;
3006;SDS011;1513;47.650;10.720;2024-03-06T08:10:20;2.50;;;2.10;;
3006;SDS011;1513;47.650;10.720;2024-03-06T08:13:02;1.60;;;1.10;;
3006;SDS011;1513;47.650;10.720;2024-03-06T08:15:28;0.97;;;0.83;;
3006;SDS011;1513;47.650;10.720;2024-03-06T08:17:55;1.27;;;1.10;;
3006;SDS011;1513;47.650;10.720;2024-03-06T08:20:25;12.43;;;11.13;;
3006;SDS011;1513;47.650;10.720;2024-03-06T08:22:56;7.17;;;6.30;;
3006;SDS011;1513;47.650;10.720;2024-03-06T08:25:22;2.60;;;2.40;;
3006;SDS011;1513;47.650;10.720;2024-03-06T08:27:49;2.00;;;1.90;;
3006;SDS011;1513;47.650;10.720;2024-03-06T08:30:15;1.37;;;1.03;;
3006;SDS011;1513;47.650;10.720;2024-03-06T08:32:42;1.20;;;1.20;;
3006;SDS011;1513;47.650;10.720;2024-03-06T08:35:11;0.77;;;0.77;;
3006;SDS011;1513;47.650;10.720;2024-03-06T08:37:39;0.93;;;0.80;;
3006;SDS011;1513;47.650;10.720;2024-03-06T08:40:09;1.87;;;1.70;;
3006;SDS011;1513;47.650;10.720;2024-03-06T08:42:43;1.43;;;1.33;;
3006;SDS011;1513;47.650;10.720;2024-03-06T08:48:17;0.80;;;0.80;;
3006;SDS011;1513;47.650;10.720;2024-03-06T08:51:07;1.17;;;1.07;;
3006;SDS011;1513;47.650;10.720;2024-03-06T08:53:37;0.80;;;0.80;;
3006;SDS011;1513;47.650;10.720;2024-03-06T08:56:04;2.20;;;1.10;;
3006;SDS011;1513;47.650;10.720;2024-03-06T08:58:31;1.47;;;0.80;;
3006;SDS011;1513;47.650;10.720;2024-03-06T09:00:58;1.90;;;1.50;;
3006;SDS011;1513;47.650;10.720;2024-03-06T09:03:24;1.67;;;1.47;;
3006;SDS011;1513;47.650;10.720;2024-03-06T09:05:50;1.23;;;1.13;;
3006;SDS011;1513;47.650;10.720;2024-03-06T09:08:19;4.00;;;1.40;;
3006;SDS011;1513;47.650;10.720;2024-03-06T09:10:45;3.70;;;2.40;;
3006;SDS011;1513;47.650;10.720;2024-03-06T09:13:12;0.93;;;0.90;;
3006;SDS011;1513;47.650;10.720;2024-03-06T09:15:38;1.37;;;0.80;;
3006;SDS011;1513;47.650;10.720;2024-03-06T09:18:05;1.37;;;0.90;;
3006;SDS011;1513;47.650;10.720;2024-03-06T09:20:32;0.73;;;0.73;;
3006;SDS011;1513;47.650;10.720;2024-03-06T09:22:58;1.73;;;1.63;;
3006;SDS011;1513;47.650;10.720;2024-03-06T09:25:25;10.60;;;5.20;;
3006;SDS011;1513;47.650;10.720;2024-03-06T09:27:51;33.37;;;14.30;;
3006;SDS011;1513;47.650;10.720;2024-03-06T09:30:26;18.53;;;10.30;;
3006;SDS011;1513;47.650;10.720;2024-03-06T09:32:53;14.43;;;8.67;;
3006;SDS011;1513;47.650;10.720;2024-03-06T09:35:19;1.50;;;1.40;;
3006;SDS011;1513;47.650;10.720;2024-03-06T09:37:45;4.67;;;3.97;;
3006;SDS011;1513;47.650;10.720;2024-03-06T09:40:16;2.00;;;1.90;;
3006;SDS011;1513;47.650;10.720;2024-03-06T09:42:46;1.10;;;1.10;;
3006;SDS011;1513;47.650;10.720;2024-03-06T09:45:14;0.80;;;0.80;;
3006;SDS011;1513;47.650;10.720;2024-03-06T09:47:41;1.30;;;1.00;;
3006;SDS011;1513;47.650;10.720;2024-03-06T09:50:09;1.07;;;0.77;;
3006;SDS011;1513;47.650;10.720;2024-03-06T09:52:37;0.77;;;0.60;;
3006;SDS011;1513;47.650;10.720;2024-03-06T09:55:05;1.27;;;0.73;;
3006;SDS011;1513;47.650;10.720;2024-03-06T09:57:35;0.70;;;0.70;;
3006;SDS011;1513;47.650;10.720;2024-03-06T10:00:01;0.40;;;0.40;;
3006;SDS011;1513;47.650;10.720;2024-03-06T10:05:04;0.40;;;0.40;;
3006;SDS011;1513;47.650;10.720;2024-03-06T10:07:33;0.97;;;0.50;;
3006;SDS011;1513;47.650;10.720;2024-03-06T10:09:59;0.50;;;0.50;;
3006;SDS011;1513;47.650;10.720;2024-03-06T10:12:26;0.90;;;0.63;;
3006;SDS011;1513;47.650;10.720;2024-03-06T10:14:53;0.43;;;0.43;;
3006;SDS011;1513;47.650;10.720;2024-03-06T10:17:21;0.57;;;0.57;;
3006;SDS011;1513;47.650;10.720;2024-03-06T10:19:48;4.97;;;2.63;;
3006;SDS011;1513;47.650;10.720;2024-03-06T10:22:17;10.10;;;4.60;;
3006;SDS011;1513;47.650;10.720;2024-03-06T10:24:45;7.00;;;3.30;;
3006;SDS011;1513;47.650;10.720;2024-03-06T10:27:15;2.63;;;2.40;;
3006;SDS011;1513;47.650;10.720;2024-03-06T10:29:45;1.40;;;1.30;;
3006;SDS011;1513;47.650;10.720;2024-03-06T10:32:15;11.80;;;5.10;;
3006;SDS011;1513;47.650;10.720;2024-03-06T10:34:46;27.87;;;12.83;;
3006;SDS011;1513;47.650;10.720;2024-03-06T10:37:12;27.33;;;13.40;;
3006;SDS011;1513;47.650;10.720;2024-03-06T10:39:40;14.70;;;8.20;;
3006;SDS011;1513;47.650;10.720;2024-03-06T10:42:09;13.10;;;8.40;;
3006;SDS011;1513;47.650;10.720;2024-03-06T10:44:38;6.20;;;4.27;;
3006;SDS011;1513;47.650;10.720;2024-03-06T10:47:15;6.13;;;5.13;;
3006;SDS011;1513;47.650;10.720;2024-03-06T10:49:42;4.30;;;3.40;;
3006;SDS011;1513;47.650;10.720;2024-03-06T10:52:09;2.30;;;2.20;;
3006;SDS011;1513;47.650;10.720;2024-03-06T10:54:35;1.90;;;1.80;;
3006;SDS011;1513;47.650;10.720;2024-03-06T10:57:04;1.83;;;1.73;;
3006;SDS011;1513;47.650;10.720;2024-03-06T10:59:33;0.87;;;0.87;;
3006;SDS011;1513;47.650;10.720;2024-03-06T11:02:00;0.60;;;0.60;;
3006;SDS011;1513;47.650;10.720;2024-03-06T11:04:28;1.73;;;1.20;;
3006;SDS011;1513;47.650;10.720;2024-03-06T11:06:59;0.80;;;0.80;;
3006;SDS011;1513;47.650;10.720;2024-03-06T11:09:26;1.37;;;0.50;;
3006;SDS011;1513;47.650;10.720;2024-03-06T11:11:54;0.50;;;0.50;;
3006;SDS011;1513;47.650;10.720;2024-03-06T11:14:21;0.70;;;0.70;;
3006;SDS011;1513;47.650;10.720;2024-03-06T11:19:32;0.40;;;0.40;;
3006;SDS011;1513;47.650;10.720;2024-03-06T11:22:18;0.40;;;0.30;;
3006;SDS011;1513;47.650;10.720;2024-03-06T11:25:01;0.40;;;0.30;;
3006;SDS011;1513;47.650;10.720;2024-03-06T11:27:27;0.53;;;0.40;;
3006;SDS011;1513;47.650;10.720;2024-03-06T11:30:03;0.50;;;0.50;;
3006;SDS011;1513;47.650;10.720;2024-03-06T11:35:27;0.60;;;0.40;;
3006;SDS011;1513;47.650;10.720;2024-03-06T11:37:53;1.23;;;1.20;;
3006;SDS011;1513;47.650;10.720;2024-03-06T11:40:24;1.57;;;0.80;;
3006;SDS011;1513;47.650;10.720;2024-03-06T11:42:51;0.80;;;0.50;;
3006;SDS011;1513;47.650;10.720;2024-03-06T11:45:17;0.80;;;0.80;;
3006;SDS011;1513;47.650;10.720;2024-03-06T11:48:00;0.60;;;0.60;;
3006;SDS011;1513;47.650;10.720;2024-03-06T11:50:27;0.70;;;0.50;;
3006;SDS011;1513;47.650;10.720;2024-03-06T11:52:56;1.60;;;1.10;;
3006;SDS011;1513;47.650;10.720;2024-03-06T11:55:23;0.63;;;0.63;;
3006;SDS011;1513;47.650;10.720;2024-03-06T11:57:52;1.50;;;0.83;;
3006;SDS011;1513;47.650;10.720;2024-03-06T12:00:22;0.50;;;0.50;;
3006;SDS011;1513;47.650;10.720;2024-03-06T12:02:49;0.50;;;0.50;;
3006;SDS011;1513;47.650;10.720;2024-03-06T12:05:17;0.60;;;0.60;;
3006;SDS011;1513;47.650;10.720;2024-03-06T12:07:49;0.97;;;0.50;;
3006;SDS011;1513;47.650;10.720;2024-03-06T12:10:16;0.60;;;0.60;;
3006;SDS011;1513;47.650;10.720;2024-03-06T12:12:43;0.90;;;0.63;;
3006;SDS011;1513;47.650;10.720;2024-03-06T12:15:13;0.80;;;0.80;;
3006;SDS011;1513;47.650;10.720;2024-03-06T12:17:47;0.63;;;0.50;;
3006;SDS011;1513;47.650;10.720;2024-03-06T12:20:15;1.13;;;0.60;;
3006;SDS011;1513;47.650;10.720;2024-03-06T12:22:54;0.50;;;0.50;;
3006;SDS011;1513;47.650;10.720;2024-03-06T12:25:22;0.73;;;0.73;;
3006;SDS011;1513;47.650;10.720;2024-03-06T12:27:50;0.57;;;0.57;;
3006;SDS011;1513;47.650;10.720;2024-03-06T12:30:20;2.00;;;0.50;;
3006;SDS011;1513;47.650;10.720;2024-03-06T12:33:00;1.30;;;0.67;;
3006;SDS011;1513;47.650;10.720;2024-03-06T12:35:29;1.17;;;1.07;;
3006;SDS011;1513;47.650;10.720;2024-03-06T12:37:56;3.10;;;1.97;;
3006;SDS011;1513;47.650;10.720;2024-03-06T12:40:23;5.20;;;2.50;;
3006;SDS011;1513;47.650;10.720;2024-03-06T12:42:49;19.07;;;6.30;;
3006;SDS011;1513;47.650;10.720;2024-03-06T12:45:17;17.73;;;6.43;;
3006;SDS011;1513;47.650;10.720;2024-03-06T12:47:45;12.30;;;3.80;;
3006;SDS011;1513;47.650;10.720;2024-03-06T12:50:13;3.83;;;2.73;;
3006;SDS011;1513;47.650;10.720;2024-03-06T12:52:39;4.50;;;2.90;;
3006;SDS011;1513;47.650;10.720;2024-03-06T12:55:06;6.00;;;3.30;;
3006;SDS011;1513;47.650;10.720;2024-03-06T12:57:33;4.50;;;3.43;;
3006;SDS011;1513;47.650;10.720;2024-03-06T12:59:59;2.03;;;1.87;;
3006;SDS011;1513;47.650;10.720;2024-03-06T13:02:25;1.40;;;1.20;;
3006;SDS011;1513;47.650;10.720;2024-03-06T13:08:42;0.70;;;0.70;;
3006;SDS011;1513;47.650;10.720;2024-03-06T13:11:08;0.80;;;0.80;;
3006;SDS011;1513;47.650;10.720;2024-03-06T13:13:35;0.80;;;0.80;;
3006;SDS011;1513;47.650;10.720;2024-03-06T13:16:01;2.67;;;0.80;;
3006;SDS011;1513;47.650;10.720;2024-03-06T13:18:27;6.53;;;3.60;;
3006;SDS011;1513;47.650;10.720;2024-03-06T13:20:54;16.20;;;7.33;;
3006;SDS011;1513;47.650;10.720;2024-03-06T13:23:23;30.40;;;11.80;;
3006;SDS011;1513;47.650;10.720;2024-03-06T13:25:49;14.67;;;6.97;;
3006;SDS011;1513;47.650;10.720;2024-03-06T13:28:17;3.03;;;2.60;;
3006;SDS011;1513;47.650;10.720;2024-03-06T13:30:45;4.50;;;3.80;;
3006;SDS011;1513;47.650;10.720;2024-03-06T13:33:11;1.53;;;1.40;;
3006;SDS011;1513;47.650;10.720;2024-03-06T13:35:38;3.90;;;3.37;;
3006;SDS011;1513;47.650;10.720;2024-03-06T13:38:04;1.70;;;1.30;;
3006;SDS011;1513;47.650;10.720;2024-03-06T13:40:30;1.03;;;0.80;;
3006;SDS011;1513;47.650;10.720;2024-03-06T13:42:56;1.80;;;1.70;;
3006;SDS011;1513;47.650;10.720;2024-03-06T13:45:22;1.10;;;1.10;;
3006;SDS011;1513;47.650;10.720;2024-03-06T13:50:24;0.70;;;0.63;;
3006;SDS011;1513;47.650;10.720;2024-03-06T13:52:53;1.53;;;1.43;;
3006;SDS011;1513;47.650;10.720;2024-03-06T13:55:19;0.73;;;0.73;;
3006;SDS011;1513;47.650;10.720;2024-03-06T13:57:46;0.93;;;0.70;;
3006;SDS011;1513;47.650;10.720;2024-03-06T14:00:12;0.57;;;0.57;;
3006;SDS011;1513;47.650;10.720;2024-03-06T14:02:43;0.80;;;0.80;;
3006;SDS011;1513;47.650;10.720;2024-03-06T14:05:11;1.13;;;0.80;;
3006;SDS011;1513;47.650;10.720;2024-03-06T14:07:38;2.43;;;1.07;;
3006;SDS011;1513;47.650;10.720;2024-03-06T14:10:07;2.50;;;1.50;;
3006;SDS011;1513;47.650;10.720;2024-03-06T14:12:35;4.00;;;2.37;;
3006;SDS011;1513;47.650;10.720;2024-03-06T14:15:02;3.33;;;2.07;;
3006;SDS011;1513;47.650;10.720;2024-03-06T14:17:30;10.53;;;4.87;;
3006;SDS011;1513;47.650;10.720;2024-03-06T14:19:56;8.70;;;4.50;;
3006;SDS011;1513;47.650;10.720;2024-03-06T14:22:22;2.17;;;2.00;;
3006;SDS011;1513;47.650;10.720;2024-03-06T14:24:49;1.63;;;1.30;;
3006;SDS011;1513;47.650;10.720;2024-03-06T14:27:15;4.27;;;2.47;;
3006;SDS011;1513;47.650;10.720;2024-03-06T14:29:42;5.47;;;4.50;;
3006;SDS011;1513;47.650;10.720;2024-03-06T14:32:08;3.33;;;3.00;;
3006;SDS011;1513;47.650;10.720;2024-03-06T14:34:34;14.43;;;4.57;;
3006;SDS011;1513;47.650;10.720;2024-03-06T14:37:01;17.13;;;4.10;;
3006;SDS011;1513;47.650;10.720;2024-03-06T14:39:28;8.77;;;1.40;;
3006;SDS011;1513;47.650;10.720;2024-03-06T14:41:55;10.00;;;2.80;;
3006;SDS011;1513;47.650;10.720;2024-03-06T14:44:21;2.70;;;1.70;;
3006;SDS011;1513;47.650;10.720;2024-03-06T14:46:48;6.30;;;2.30;;
3006;SDS011;1513;47.650;10.720;2024-03-06T14:49:14;4.27;;;2.03;;
3006;SDS011;1513;47.650;10.720;2024-03-06T14:51:41;2.07;;;1.63;;
3006;SDS011;1513;47.650;10.720;2024-03-06T14:54:14;1.43;;;1.33;;
3006;SDS011;1513;47.650;10.720;2024-03-06T14:56:40;6.20;;;3.93;;
3006;SDS011;1513;47.650;10.720;2024-03-06T14:59:07;3.80;;;3.00;;
3006;SDS011;1513;47.650;10.720;2024-03-06T15:01:33;6.80;;;4.10;;
3006;SDS011;1513;47.650;10.720;2024-03-06T15:04:02;1.63;;;1.53;;
3006;SDS011;1513;47.650;10.720;2024-03-06T15:06:28;5.00;;;3.30;;
3006;SDS011;1513;47.650;10.720;2024-03-06T15:08:54;2.80;;;1.90;;
3006;SDS011;1513;47.650;10.720;2024-03-06T15:11:21;3.13;;;2.83;;
3006;SDS011;1513;47.650;10.720;2024-03-06T15:13:49;2.93;;;2.63;;
3006;SDS011;1513;47.650;10.720;2024-03-06T15:16:17;7.27;;;4.40;;
3006;SDS011;1513;47.650;10.720;2024-03-06T15:18:43;6.20;;;4.40;;
3006;SDS011;1513;47.650;10.720;2024-03-06T15:21:30;7.63;;;4.00;;
3006;SDS011;1513;47.650;10.720;2024-03-06T15:24:07;10.33;;;5.00;;
3006;SDS011;1513;47.650;10.720;2024-03-06T15:26:55;15.93;;;8.30;;
3006;SDS011;1513;47.650;10.720;2024-03-06T15:29:34;7.77;;;3.87;;
3006;SDS011;1513;47.650;10.720;2024-03-06T15:32:02;29.93;;;13.77;;
3006;SDS011;1513;47.650;10.720;2024-03-06T15:34:29;26.60;;;11.27;;
3006;SDS011;1513;47.650;10.720;2024-03-06T15:40:43;12.63;;;6.37;;
3006;SDS011;1513;47.650;10.720;2024-03-06T15:43:12;12.40;;;6.93;;
3006;SDS011;1513;47.650;10.720;2024-03-06T15:45:38;10.90;;;6.43;;
3006;SDS011;1513;47.650;10.720;2024-03-06T15:48:05;12.90;;;7.50;;
3006;SDS011;1513;47.650;10.720;2024-03-06T15:50:35;10.23;;;5.60;;
3006;SDS011;1513;47.650;10.720;2024-03-06T15:53:02;8.13;;;4.40;;
3006;SDS011;1513;47.650;10.720;2024-03-06T15:55:28;5.40;;;3.80;;
3006;SDS011;1513;47.650;10.720;2024-03-06T15:57:55;10.80;;;6.63;;
3006;SDS011;1513;47.650;10.720;2024-03-06T16:03:49;13.17;;;7.97;;
3006;SDS011;1513;47.650;10.720;2024-03-06T16:06:17;10.17;;;6.90;;
3006;SDS011;1513;47.650;10.720;2024-03-06T16:08:44;11.23;;;7.63;;
3006;SDS011;1513;47.650;10.720;2024-03-06T16:11:13;10.53;;;8.03;;
3006;SDS011;1513;47.650;10.720;2024-03-06T16:13:39;15.17;;;7.60;;
3006;SDS011;1513;47.650;10.720;2024-03-06T16:16:08;9.50;;;6.33;;
3006;SDS011;1513;47.650;10.720;2024-03-06T16:18:35;5.03;;;4.40;;
3006;SDS011;1513;47.650;10.720;2024-03-06T16:21:01;9.77;;;5.30;;
3006;SDS011;1513;47.650;10.720;2024-03-06T16:23:36;6.23;;;4.90;;
3006;SDS011;1513;47.650;10.720;2024-03-06T16:26:02;6.60;;;5.23;;
3006;SDS011;1513;47.650;10.720;2024-03-06T16:28:32;7.37;;;5.17;;
3006;SDS011;1513;47.650;10.720;2024-03-06T16:31:07;6.10;;;4.50;;
3006;SDS011;1513;47.650;10.720;2024-03-06T16:33:36;6.17;;;4.90;;
3006;SDS011;1513;47.650;10.720;2024-03-06T16:36:06;11.77;;;7.10;;
3006;SDS011;1513;47.650;10.720;2024-03-06T16:38:32;8.87;;;6.40;;
3006;SDS011;1513;47.650;10.720;2024-03-06T16:40:59;11.77;;;6.80;;
3006;SDS011;1513;47.650;10.720;2024-03-06T16:43:25;10.17;;;6.30;;
3006;SDS011;1513;47.650;10.720;2024-03-06T16:45:51;5.37;;;4.13;;
3006;SDS011;1513;47.650;10.720;2024-03-06T16:48:17;8.73;;;5.93;;
3006;SDS011;1513;47.650;10.720;2024-03-06T16:50:44;6.90;;;5.37;;
3006;SDS011;1513;47.650;10.720;2024-03-06T16:53:11;11.37;;;6.30;;
3006;SDS011;1513;47.650;10.720;2024-03-06T16:55:40;10.23;;;6.53;;
3006;SDS011;1513;47.650;10.720;2024-03-06T16:58:08;6.20;;;4.70;;
3006;SDS011;1513;47.650;10.720;2024-03-06T17:00:35;6.70;;;4.70;;
3006;SDS011;1513;47.650;10.720;2024-03-06T17:03:02;7.50;;;5.47;;
3006;SDS011;1513;47.650;10.720;2024-03-06T17:08:33;7.77;;;5.53;;
3006;SDS011;1513;47.650;10.720;2024-03-06T17:11:00;8.23;;;5.93;;
3006;SDS011;1513;47.650;10.720;2024-03-06T17:13:29;7.67;;;5.67;;
3006;SDS011;1513;47.650;10.720;2024-03-06T17:15:58;7.80;;;5.80;;
3006;SDS011;1513;47.650;10.720;2024-03-06T17:21:57;5.77;;;4.60;;
3006;SDS011;1513;47.650;10.720;2024-03-06T17:24:24;8.27;;;5.20;;
3006;SDS011;1513;47.650;10.720;2024-03-06T17:26:57;9.67;;;5.50;;
3006;SDS011;1513;47.650;10.720;2024-03-06T17:29:23;10.93;;;6.00;;
3006;SDS011;1513;47.650;10.720;2024-03-06T17:31:59;19.23;;;8.73;;
3006;SDS011;1513;47.650;10.720;2024-03-06T17:34:28;44.20;;;15.00;;
3006;SDS011;1513;47.650;10.720;2024-03-06T17:37:13;6.47;;;3.20;;
3006;SDS011;1513;47.650;10.720;2024-03-06T17:43:46;12.40;;;6.70;;